SKBQ/BAQ METAR and TAF weather

Enter ICAO airport designator
Station Type Date Time Source
SKBQ METAR 2018/12/15 21:00 UTC NOAA

SKBQ 152100Z 34008KT 9999 FEW015 30/23 A2982


Station Type Date Time Source
SKBQ Decoded METAR 2018/12/15 21:00 UTC NOAA

Barranquilla / Ernestocortissoz, Colombia (SKBQ) 10-53N 074-47W 30M
Dec 15, 2018 - 04:00 PM EST / 2018.12.15 2100 UTC
Wind: from the NNW (340 degrees) at 9 MPH (8 KT):0
Visibility: greater than 7 mile(s):0
Sky conditions: mostly clear
Temperature: 86 F (30 C)
Heat index: 93.4 F (34.1 C):1
Dew Point: 73 F (23 C)
Relative Humidity: 66%
Pressure (altimeter): 29.82 in. Hg (1009 hPa)
ob: SKBQ 152100Z 34008KT 9999 FEW015 30/23 A2982
cycle: 21

Station Type Date Time Source
SKBQ TAF 2018/12/15 18:45 UTC NOAA

TAF SKBQ 151700Z 1518/1618 36012KT FEW015
BECMG 1522/1600 01005KT CAVOK
TEMPO 1609/1612 5000 BR FEW005 TX33/1518Z TN24/1611Z


Example: see airport list